createdAt,value
2023-05-08T00:01:58.260Z,1024.14
2023-05-08T00:16:58.448Z,1024.12
2023-05-08T00:31:58.432Z,1024.07
2023-05-08T00:47:01.216Z,1024.17
2023-05-08T01:02:02.728Z,1024.26
2023-05-08T01:17:03.243Z,1024.36
2023-05-08T01:32:03.421Z,1024.30
2023-05-08T01:47:04.043Z,1024.37
2023-05-08T02:02:04.355Z,1024.34
2023-05-08T02:17:04.619Z,1024.34
2023-05-08T02:32:04.771Z,1024.38
2023-05-08T02:47:06.939Z,1024.37
2023-05-08T03:02:07.724Z,1024.39
2023-05-08T03:17:07.784Z,1024.45
2023-05-08T03:32:07.944Z,1024.36
2023-05-08T03:47:08.465Z,1024.51
2023-05-08T04:02:08.751Z,1024.53
2023-05-08T04:17:08.993Z,1024.59
2023-05-08T04:32:09.048Z,1024.66
2023-05-08T04:47:09.237Z,1024.85
2023-05-08T05:02:09.514Z,1024.96
2023-05-08T05:17:09.686Z,1025.19
2023-05-08T05:32:10.030Z,1025.15
2023-05-08T05:47:10.461Z,1025.26
2023-05-08T06:02:10.657Z,1025.30
2023-05-08T06:17:10.661Z,1025.33
2023-05-08T06:32:11.009Z,1025.43
2023-05-08T06:47:11.467Z,1025.43
2023-05-08T07:02:11.742Z,1025.52
2023-05-08T07:17:12.083Z,1025.41
2023-05-08T07:32:12.029Z,1025.41
2023-05-08T07:47:12.482Z,1025.36
2023-05-08T08:02:12.399Z,1025.35
2023-05-08T08:17:12.804Z,1025.17
2023-05-08T08:32:12.738Z,1025.27
2023-05-08T08:47:12.746Z,1025.18
2023-05-08T09:02:13.438Z,1025.18
2023-05-08T09:17:14.417Z,1024.93
2023-05-08T09:32:15.104Z,1024.93
2023-05-08T09:47:15.858Z,1024.87
2023-05-08T10:02:16.340Z,1024.97
2023-05-08T10:17:17.342Z,1024.87
2023-05-08T10:32:18.484Z,1024.73
2023-05-08T10:47:18.528Z,1024.64
2023-05-08T11:02:18.905Z,1024.38
2023-05-08T11:17:19.000Z,1024.44
2023-05-08T11:32:19.629Z,1024.29
2023-05-08T11:47:19.859Z,1024.20
2023-05-08T12:02:20.612Z,1024.00
2023-05-08T12:17:20.623Z,1024.03
2023-05-08T12:32:20.653Z,1023.89
2023-05-08T12:47:20.746Z,1023.79
2023-05-08T13:02:21.041Z,1023.71
2023-05-08T13:17:20.904Z,1023.54
2023-05-08T13:32:21.097Z,1023.25
2023-05-08T13:47:22.058Z,1023.33
2023-05-08T14:02:22.415Z,1023.17
2023-05-08T14:17:23.224Z,1022.85
2023-05-08T14:32:23.439Z,1022.88
2023-05-08T14:47:23.473Z,1022.81
2023-05-08T15:02:23.739Z,1022.82
2023-05-08T15:17:24.586Z,1022.74
2023-05-08T15:32:25.136Z,1022.73
2023-05-08T15:47:25.823Z,1022.68
2023-05-08T16:02:26.501Z,1022.64
2023-05-08T16:17:27.556Z,1022.51
2023-05-08T16:32:28.063Z,1022.38
2023-05-08T16:47:27.966Z,1022.27
2023-05-08T17:02:28.305Z,1022.30
2023-05-08T17:17:29.910Z,1022.04
2023-05-08T17:32:30.397Z,1022.14
2023-05-08T17:47:30.695Z,1022.20
2023-05-08T18:02:31.518Z,1022.27
2023-05-08T18:17:31.736Z,1022.37
2023-05-08T18:32:31.946Z,1022.47
2023-05-08T18:47:35.215Z,1022.36
2023-05-08T19:02:35.366Z,1022.56
2023-05-08T19:17:35.667Z,1022.62
2023-05-08T19:32:39.991Z,1022.71
2023-05-08T19:47:40.947Z,1022.66
2023-05-08T20:02:41.485Z,1022.66
2023-05-08T20:17:41.517Z,1022.81
2023-05-08T20:32:42.009Z,1022.67
2023-05-08T20:47:42.988Z,1022.83
2023-05-08T21:02:43.453Z,1022.77
2023-05-08T21:17:43.523Z,1022.68
2023-05-08T21:32:43.701Z,1022.53
2023-05-08T21:47:44.024Z,1022.51
2023-05-08T22:02:44.306Z,1022.44
2023-05-08T22:17:44.390Z,1022.40
2023-05-08T22:32:46.034Z,1022.21
2023-05-08T22:47:46.301Z,1022.19
2023-05-08T23:02:46.369Z,1022.03
2023-05-08T23:17:46.932Z,1021.84
2023-05-08T23:32:47.236Z,1021.63
2023-05-08T23:47:47.082Z,1021.55
